sensor_id;sensor_type;location;lat;lon;timestamp;P1;durP1;ratioP1;P2;durP2;ratioP2
13611;SDS011;6877;51.436;6.774;2023-08-31T00:02:07;5.80;;;4.53;;
13611;SDS011;6877;51.436;6.774;2023-08-31T00:04:35;17.58;;;5.10;;
13611;SDS011;6877;51.436;6.774;2023-08-31T00:07:02;9.00;;;5.50;;
13611;SDS011;6877;51.436;6.774;2023-08-31T00:09:34;9.52;;;4.20;;
13611;SDS011;6877;51.436;6.774;2023-08-31T00:12:05;6.50;;;4.63;;
13611;SDS011;6877;51.436;6.774;2023-08-31T00:14:32;14.52;;;5.97;;
13611;SDS011;6877;51.436;6.774;2023-08-31T00:16:58;12.88;;;5.28;;
13611;SDS011;6877;51.436;6.774;2023-08-31T00:19:25;15.18;;;6.35;;
13611;SDS011;6877;51.436;6.774;2023-08-31T00:21:57;11.48;;;6.68;;
13611;SDS011;6877;51.436;6.774;2023-08-31T00:24:24;18.48;;;8.48;;
13611;SDS011;6877;51.436;6.774;2023-08-31T00:26:56;12.73;;;7.70;;
13611;SDS011;6877;51.436;6.774;2023-08-31T00:29:22;15.38;;;6.05;;
13611;SDS011;6877;51.436;6.774;2023-08-31T00:31:49;11.27;;;5.20;;
13611;SDS011;6877;51.436;6.774;2023-08-31T00:34:17;8.25;;;4.22;;
13611;SDS011;6877;51.436;6.774;2023-08-31T00:36:43;8.00;;;4.35;;
13611;SDS011;6877;51.436;6.774;2023-08-31T00:39:15;9.52;;;4.60;;
13611;SDS011;6877;51.436;6.774;2023-08-31T00:41:52;10.13;;;4.63;;
13611;SDS011;6877;51.436;6.774;2023-08-31T00:44:19;8.30;;;5.10;;
13611;SDS011;6877;51.436;6.774;2023-08-31T00:46:45;10.40;;;5.15;;
13611;SDS011;6877;51.436;6.774;2023-08-31T00:49:17;14.32;;;5.13;;
13611;SDS011;6877;51.436;6.774;2023-08-31T00:51:48;11.20;;;5.78;;
13611;SDS011;6877;51.436;6.774;2023-08-31T00:54:16;7.28;;;4.65;;
13611;SDS011;6877;51.436;6.774;2023-08-31T00:56:44;7.22;;;5.18;;
13611;SDS011;6877;51.436;6.774;2023-08-31T00:59:16;9.60;;;5.93;;
13611;SDS011;6877;51.436;6.774;2023-08-31T01:01:43;8.40;;;5.07;;
13611;SDS011;6877;51.436;6.774;2023-08-31T01:04:32;9.70;;;5.05;;
13611;SDS011;6877;51.436;6.774;2023-08-31T01:13:24;10.63;;;5.53;;
13611;SDS011;6877;51.436;6.774;2023-08-31T01:15:53;8.20;;;5.25;;
13611;SDS011;6877;51.436;6.774;2023-08-31T01:18:22;10.23;;;4.75;;
13611;SDS011;6877;51.436;6.774;2023-08-31T01:21:02;9.15;;;5.78;;
13611;SDS011;6877;51.436;6.774;2023-08-31T01:23:49;8.18;;;5.05;;
13611;SDS011;6877;51.436;6.774;2023-08-31T01:26:23;9.02;;;4.40;;
13611;SDS011;6877;51.436;6.774;2023-08-31T01:28:55;9.35;;;5.28;;
13611;SDS011;6877;51.436;6.774;2023-08-31T01:31:26;10.52;;;5.00;;
13611;SDS011;6877;51.436;6.774;2023-08-31T01:33:53;6.82;;;4.40;;
13611;SDS011;6877;51.436;6.774;2023-08-31T01:36:30;11.07;;;4.43;;
13611;SDS011;6877;51.436;6.774;2023-08-31T01:39:02;9.80;;;4.57;;
13611;SDS011;6877;51.436;6.774;2023-08-31T01:41:37;7.40;;;4.60;;
13611;SDS011;6877;51.436;6.774;2023-08-31T01:44:09;6.80;;;4.57;;
13611;SDS011;6877;51.436;6.774;2023-08-31T01:46:45;7.95;;;5.25;;
13611;SDS011;6877;51.436;6.774;2023-08-31T01:49:17;9.88;;;5.28;;
13611;SDS011;6877;51.436;6.774;2023-08-31T01:51:45;7.70;;;5.45;;
13611;SDS011;6877;51.436;6.774;2023-08-31T01:54:16;10.35;;;4.65;;
13611;SDS011;6877;51.436;6.774;2023-08-31T01:56:48;7.50;;;5.10;;
13611;SDS011;6877;51.436;6.774;2023-08-31T01:59:19;11.07;;;5.43;;
13611;SDS011;6877;51.436;6.774;2023-08-31T02:01:50;9.65;;;5.18;;
13611;SDS011;6877;51.436;6.774;2023-08-31T02:04:22;9.93;;;5.50;;
13611;SDS011;6877;51.436;6.774;2023-08-31T02:06:54;14.68;;;5.88;;
13611;SDS011;6877;51.436;6.774;2023-08-31T02:09:25;9.93;;;5.30;;
13611;SDS011;6877;51.436;6.774;2023-08-31T02:11:52;14.60;;;6.22;;
13611;SDS011;6877;51.436;6.774;2023-08-31T02:14:18;10.63;;;6.07;;
13611;SDS011;6877;51.436;6.774;2023-08-31T02:16:45;14.18;;;6.55;;
13611;SDS011;6877;51.436;6.774;2023-08-31T02:19:16;8.55;;;5.22;;
13611;SDS011;6877;51.436;6.774;2023-08-31T02:21:43;12.05;;;5.47;;
13611;SDS011;6877;51.436;6.774;2023-08-31T02:24:09;9.25;;;5.78;;
13611;SDS011;6877;51.436;6.774;2023-08-31T02:26:36;8.35;;;5.25;;
13611;SDS011;6877;51.436;6.774;2023-08-31T02:29:03;7.32;;;4.95;;
13611;SDS011;6877;51.436;6.774;2023-08-31T02:31:30;10.30;;;5.75;;
13611;SDS011;6877;51.436;6.774;2023-08-31T02:33:56;10.27;;;6.65;;
13611;SDS011;6877;51.436;6.774;2023-08-31T02:36:23;8.57;;;5.63;;
13611;SDS011;6877;51.436;6.774;2023-08-31T02:38:49;8.95;;;7.03;;
13611;SDS011;6877;51.436;6.774;2023-08-31T02:41:16;9.70;;;6.68;;
13611;SDS011;6877;51.436;6.774;2023-08-31T02:43:43;9.05;;;5.25;;
13611;SDS011;6877;51.436;6.774;2023-08-31T02:46:09;9.98;;;6.35;;
13611;SDS011;6877;51.436;6.774;2023-08-31T02:48:37;8.95;;;5.38;;
13611;SDS011;6877;51.436;6.774;2023-08-31T02:51:05;9.57;;;5.47;;
13611;SDS011;6877;51.436;6.774;2023-08-31T02:53:31;10.77;;;5.82;;
13611;SDS011;6877;51.436;6.774;2023-08-31T02:56:03;9.80;;;6.18;;
13611;SDS011;6877;51.436;6.774;2023-08-31T02:58:29;9.82;;;5.22;;
13611;SDS011;6877;51.436;6.774;2023-08-31T03:01:10;11.75;;;5.03;;
13611;SDS011;6877;51.436;6.774;2023-08-31T03:03:41;8.05;;;5.10;;
13611;SDS011;6877;51.436;6.774;2023-08-31T03:06:09;7.13;;;5.20;;
13611;SDS011;6877;51.436;6.774;2023-08-31T03:08:36;6.32;;;5.30;;
13611;SDS011;6877;51.436;6.774;2023-08-31T03:11:04;12.10;;;5.55;;
13611;SDS011;6877;51.436;6.774;2023-08-31T03:13:31;11.95;;;5.05;;
13611;SDS011;6877;51.436;6.774;2023-08-31T03:15:59;9.57;;;5.35;;
13611;SDS011;6877;51.436;6.774;2023-08-31T03:18:26;15.18;;;5.85;;
13611;SDS011;6877;51.436;6.774;2023-08-31T03:20:54;6.90;;;5.13;;
13611;SDS011;6877;51.436;6.774;2023-08-31T03:23:21;10.18;;;5.60;;
13611;SDS011;6877;51.436;6.774;2023-08-31T03:25:48;12.07;;;6.07;;
13611;SDS011;6877;51.436;6.774;2023-08-31T03:28:14;8.73;;;5.10;;
13611;SDS011;6877;51.436;6.774;2023-08-31T03:30:41;9.20;;;5.80;;
13611;SDS011;6877;51.436;6.774;2023-08-31T03:33:07;12.45;;;6.18;;
13611;SDS011;6877;51.436;6.774;2023-08-31T03:35:34;10.38;;;6.47;;
13611;SDS011;6877;51.436;6.774;2023-08-31T03:38:00;7.93;;;5.50;;
13611;SDS011;6877;51.436;6.774;2023-08-31T03:40:32;6.82;;;5.05;;
13611;SDS011;6877;51.436;6.774;2023-08-31T03:42:59;12.95;;;6.38;;
13611;SDS011;6877;51.436;6.774;2023-08-31T03:45:25;12.35;;;6.28;;
13611;SDS011;6877;51.436;6.774;2023-08-31T03:47:51;10.85;;;6.40;;
13611;SDS011;6877;51.436;6.774;2023-08-31T03:50:18;12.82;;;6.68;;
13611;SDS011;6877;51.436;6.774;2023-08-31T03:52:44;11.95;;;6.68;;
13611;SDS011;6877;51.436;6.774;2023-08-31T03:55:11;13.40;;;6.82;;
13611;SDS011;6877;51.436;6.774;2023-08-31T03:57:37;11.45;;;6.18;;
13611;SDS011;6877;51.436;6.774;2023-08-31T04:00:04;11.70;;;6.40;;
13611;SDS011;6877;51.436;6.774;2023-08-31T04:02:38;12.93;;;6.20;;
13611;SDS011;6877;51.436;6.774;2023-08-31T04:05:08;13.68;;;6.30;;
13611;SDS011;6877;51.436;6.774;2023-08-31T04:07:35;10.20;;;6.22;;
13611;SDS011;6877;51.436;6.774;2023-08-31T04:10:02;14.63;;;5.70;;
13611;SDS011;6877;51.436;6.774;2023-08-31T04:12:30;9.93;;;5.32;;
13611;SDS011;6877;51.436;6.774;2023-08-31T04:14:56;15.27;;;7.05;;
13611;SDS011;6877;51.436;6.774;2023-08-31T04:17:23;9.10;;;5.07;;
13611;SDS011;6877;51.436;6.774;2023-08-31T04:19:50;11.95;;;5.55;;
13611;SDS011;6877;51.436;6.774;2023-08-31T04:22:16;13.85;;;7.78;;
13611;SDS011;6877;51.436;6.774;2023-08-31T04:24:43;10.10;;;6.68;;
13611;SDS011;6877;51.436;6.774;2023-08-31T04:27:10;10.05;;;5.25;;
13611;SDS011;6877;51.436;6.774;2023-08-31T04:29:46;13.52;;;6.75;;
13611;SDS011;6877;51.436;6.774;2023-08-31T04:32:16;11.75;;;6.40;;
13611;SDS011;6877;51.436;6.774;2023-08-31T04:34:43;8.95;;;5.47;;
13611;SDS011;6877;51.436;6.774;2023-08-31T04:37:10;8.93;;;5.88;;
13611;SDS011;6877;51.436;6.774;2023-08-31T04:39:38;9.82;;;5.75;;
13611;SDS011;6877;51.436;6.774;2023-08-31T04:42:04;15.07;;;5.95;;
13611;SDS011;6877;51.436;6.774;2023-08-31T04:44:31;15.48;;;7.75;;
13611;SDS011;6877;51.436;6.774;2023-08-31T04:46:57;9.73;;;6.13;;
13611;SDS011;6877;51.436;6.774;2023-08-31T04:49:24;11.45;;;6.43;;
13611;SDS011;6877;51.436;6.774;2023-08-31T04:51:50;9.52;;;6.03;;
13611;SDS011;6877;51.436;6.774;2023-08-31T04:54:17;12.35;;;6.55;;
13611;SDS011;6877;51.436;6.774;2023-08-31T04:56:51;12.18;;;6.60;;
13611;SDS011;6877;51.436;6.774;2023-08-31T04:59:18;11.00;;;5.78;;
13611;SDS011;6877;51.436;6.774;2023-08-31T05:01:47;11.63;;;7.10;;
13611;SDS011;6877;51.436;6.774;2023-08-31T05:04:13;10.30;;;6.88;;
13611;SDS011;6877;51.436;6.774;2023-08-31T05:09:36;12.85;;;6.32;;
13611;SDS011;6877;51.436;6.774;2023-08-31T05:12:03;13.57;;;6.32;;
13611;SDS011;6877;51.436;6.774;2023-08-31T05:14:35;9.35;;;6.32;;
13611;SDS011;6877;51.436;6.774;2023-08-31T05:17:03;13.13;;;5.90;;
13611;SDS011;6877;51.436;6.774;2023-08-31T05:19:30;11.25;;;6.43;;
13611;SDS011;6877;51.436;6.774;2023-08-31T05:22:00;13.65;;;6.97;;
13611;SDS011;6877;51.436;6.774;2023-08-31T05:24:26;12.70;;;6.60;;
13611;SDS011;6877;51.436;6.774;2023-08-31T05:26:53;10.57;;;6.53;;
13611;SDS011;6877;51.436;6.774;2023-08-31T05:29:19;9.30;;;6.43;;
13611;SDS011;6877;51.436;6.774;2023-08-31T05:31:46;12.45;;;7.03;;
13611;SDS011;6877;51.436;6.774;2023-08-31T05:34:16;11.45;;;6.68;;
13611;SDS011;6877;51.436;6.774;2023-08-31T05:36:46;14.80;;;7.38;;
13611;SDS011;6877;51.436;6.774;2023-08-31T05:39:12;11.50;;;6.57;;
13611;SDS011;6877;51.436;6.774;2023-08-31T05:41:41;10.48;;;6.80;;
13611;SDS011;6877;51.436;6.774;2023-08-31T05:44:09;11.60;;;6.35;;
13611;SDS011;6877;51.436;6.774;2023-08-31T05:46:36;7.97;;;6.10;;
13611;SDS011;6877;51.436;6.774;2023-08-31T05:49:05;11.38;;;6.30;;
13611;SDS011;6877;51.436;6.774;2023-08-31T05:51:36;12.85;;;6.05;;
13611;SDS011;6877;51.436;6.774;2023-08-31T05:54:03;15.00;;;7.20;;
13611;SDS011;6877;51.436;6.774;2023-08-31T05:56:29;12.65;;;6.38;;
13611;SDS011;6877;51.436;6.774;2023-08-31T05:58:56;14.02;;;6.88;;
13611;SDS011;6877;51.436;6.774;2023-08-31T06:01:22;12.10;;;7.18;;
13611;SDS011;6877;51.436;6.774;2023-08-31T06:03:49;10.95;;;5.88;;
13611;SDS011;6877;51.436;6.774;2023-08-31T06:06:16;12.52;;;6.45;;
13611;SDS011;6877;51.436;6.774;2023-08-31T06:08:43;16.08;;;7.57;;
13611;SDS011;6877;51.436;6.774;2023-08-31T06:11:09;8.32;;;6.18;;
13611;SDS011;6877;51.436;6.774;2023-08-31T06:13:37;12.70;;;7.63;;
13611;SDS011;6877;51.436;6.774;2023-08-31T06:16:12;9.25;;;5.53;;
13611;SDS011;6877;51.436;6.774;2023-08-31T06:18:52;7.95;;;6.00;;
13611;SDS011;6877;51.436;6.774;2023-08-31T06:21:24;8.15;;;6.13;;
13611;SDS011;6877;51.436;6.774;2023-08-31T06:23:50;11.13;;;6.20;;
13611;SDS011;6877;51.436;6.774;2023-08-31T06:26:17;9.43;;;5.40;;
13611;SDS011;6877;51.436;6.774;2023-08-31T06:28:52;12.23;;;6.50;;
13611;SDS011;6877;51.436;6.774;2023-08-31T06:31:19;10.63;;;6.20;;
13611;SDS011;6877;51.436;6.774;2023-08-31T06:33:46;6.53;;;4.88;;
13611;SDS011;6877;51.436;6.774;2023-08-31T06:36:12;12.75;;;5.30;;
13611;SDS011;6877;51.436;6.774;2023-08-31T06:38:39;9.18;;;5.10;;
13611;SDS011;6877;51.436;6.774;2023-08-31T06:41:06;9.77;;;5.20;;
13611;SDS011;6877;51.436;6.774;2023-08-31T06:43:33;8.25;;;6.97;;
13611;SDS011;6877;51.436;6.774;2023-08-31T06:46:00;6.72;;;4.90;;
13611;SDS011;6877;51.436;6.774;2023-08-31T06:48:27;7.13;;;4.55;;
13611;SDS011;6877;51.436;6.774;2023-08-31T06:50:56;7.15;;;5.03;;
13611;SDS011;6877;51.436;6.774;2023-08-31T06:53:30;11.15;;;4.72;;
13611;SDS011;6877;51.436;6.774;2023-08-31T06:55:58;13.73;;;6.50;;
13611;SDS011;6877;51.436;6.774;2023-08-31T06:58:24;12.13;;;5.95;;
13611;SDS011;6877;51.436;6.774;2023-08-31T07:00:51;17.50;;;5.40;;
13611;SDS011;6877;51.436;6.774;2023-08-31T07:03:20;9.43;;;6.00;;
13611;SDS011;6877;51.436;6.774;2023-08-31T07:05:46;8.13;;;4.95;;
13611;SDS011;6877;51.436;6.774;2023-08-31T07:08:13;9.00;;;4.75;;
13611;SDS011;6877;51.436;6.774;2023-08-31T07:10:50;10.00;;;5.60;;
13611;SDS011;6877;51.436;6.774;2023-08-31T07:13:16;6.88;;;4.05;;
13611;SDS011;6877;51.436;6.774;2023-08-31T07:16:04;6.03;;;3.67;;
13611;SDS011;6877;51.436;6.774;2023-08-31T07:18:38;6.97;;;3.95;;
13611;SDS011;6877;51.436;6.774;2023-08-31T07:21:05;7.63;;;4.43;;
13611;SDS011;6877;51.436;6.774;2023-08-31T07:23:45;12.15;;;4.00;;
13611;SDS011;6877;51.436;6.774;2023-08-31T07:26:12;27.48;;;5.95;;
13611;SDS011;6877;51.436;6.774;2023-08-31T07:28:39;7.63;;;4.00;;
13611;SDS011;6877;51.436;6.774;2023-08-31T07:31:06;4.30;;;3.22;;
13611;SDS011;6877;51.436;6.774;2023-08-31T07:33:33;8.00;;;4.18;;
13611;SDS011;6877;51.436;6.774;2023-08-31T07:36:03;5.13;;;3.75;;
13611;SDS011;6877;51.436;6.774;2023-08-31T07:38:31;8.63;;;3.30;;
13611;SDS011;6877;51.436;6.774;2023-08-31T07:40:58;6.03;;;3.60;;
13611;SDS011;6877;51.436;6.774;2023-08-31T07:43:25;10.18;;;3.50;;
13611;SDS011;6877;51.436;6.774;2023-08-31T07:45:52;6.28;;;4.03;;
13611;SDS011;6877;51.436;6.774;2023-08-31T07:48:20;4.10;;;3.20;;
13611;SDS011;6877;51.436;6.774;2023-08-31T07:50:46;4.32;;;3.75;;
13611;SDS011;6877;51.436;6.774;2023-08-31T07:53:13;7.20;;;3.67;;
13611;SDS011;6877;51.436;6.774;2023-08-31T07:55:39;6.85;;;3.70;;
13611;SDS011;6877;51.436;6.774;2023-08-31T07:58:06;9.13;;;4.47;;
13611;SDS011;6877;51.436;6.774;2023-08-31T08:00:42;5.85;;;3.80;;
13611;SDS011;6877;51.436;6.774;2023-08-31T08:03:23;7.28;;;3.38;;
13611;SDS011;6877;51.436;6.774;2023-08-31T08:05:53;3.35;;;2.60;;
13611;SDS011;6877;51.436;6.774;2023-08-31T08:08:21;9.32;;;5.45;;
13611;SDS011;6877;51.436;6.774;2023-08-31T08:10:51;6.95;;;3.22;;
13611;SDS011;6877;51.436;6.774;2023-08-31T08:13:22;7.82;;;2.50;;
13611;SDS011;6877;51.436;6.774;2023-08-31T08:15:54;7.82;;;2.75;;
13611;SDS011;6877;51.436;6.774;2023-08-31T08:18:21;9.48;;;3.25;;
13611;SDS011;6877;51.436;6.774;2023-08-31T08:20:52;5.45;;;2.75;;
13611;SDS011;6877;51.436;6.774;2023-08-31T08:23:22;4.93;;;3.03;;
13611;SDS011;6877;51.436;6.774;2023-08-31T08:25:49;2.35;;;1.60;;
13611;SDS011;6877;51.436;6.774;2023-08-31T08:28:16;5.95;;;2.55;;
13611;SDS011;6877;51.436;6.774;2023-08-31T08:30:46;4.80;;;1.60;;
13611;SDS011;6877;51.436;6.774;2023-08-31T08:33:30;3.47;;;1.98;;
13611;SDS011;6877;51.436;6.774;2023-08-31T08:36:00;6.28;;;2.08;;
13611;SDS011;6877;51.436;6.774;2023-08-31T08:38:34;2.03;;;1.35;;
13611;SDS011;6877;51.436;6.774;2023-08-31T08:41:04;6.65;;;2.10;;
13611;SDS011;6877;51.436;6.774;2023-08-31T08:43:34;3.78;;;1.80;;
13611;SDS011;6877;51.436;6.774;2023-08-31T08:46:08;2.90;;;1.42;;
13611;SDS011;6877;51.436;6.774;2023-08-31T08:48:35;1.83;;;1.65;;
13611;SDS011;6877;51.436;6.774;2023-08-31T08:51:04;4.38;;;1.80;;
13611;SDS011;6877;51.436;6.774;2023-08-31T08:53:31;3.08;;;1.48;;
13611;SDS011;6877;51.436;6.774;2023-08-31T08:55:58;3.00;;;1.40;;
13611;SDS011;6877;51.436;6.774;2023-08-31T08:58:24;2.15;;;1.55;;
13611;SDS011;6877;51.436;6.774;2023-08-31T09:00:51;2.35;;;1.38;;
13611;SDS011;6877;51.436;6.774;2023-08-31T09:03:20;3.67;;;2.28;;
13611;SDS011;6877;51.436;6.774;2023-08-31T09:05:47;5.13;;;1.80;;
13611;SDS011;6877;51.436;6.774;2023-08-31T09:08:13;4.75;;;1.20;;
13611;SDS011;6877;51.436;6.774;2023-08-31T09:10:46;3.75;;;1.73;;
13611;SDS011;6877;51.436;6.774;2023-08-31T09:13:14;1.83;;;1.20;;
13611;SDS011;6877;51.436;6.774;2023-08-31T09:15:47;6.20;;;1.45;;
13611;SDS011;6877;51.436;6.774;2023-08-31T09:18:15;3.72;;;1.35;;
13611;SDS011;6877;51.436;6.774;2023-08-31T09:20:49;4.47;;;2.67;;
13611;SDS011;6877;51.436;6.774;2023-08-31T09:23:16;6.88;;;2.35;;
13611;SDS011;6877;51.436;6.774;2023-08-31T09:25:50;7.18;;;2.17;;
13611;SDS011;6877;51.436;6.774;2023-08-31T09:28:22;2.63;;;1.60;;
13611;SDS011;6877;51.436;6.774;2023-08-31T09:30:52;3.47;;;1.88;;
13611;SDS011;6877;51.436;6.774;2023-08-31T09:33:31;7.68;;;1.75;;
13611;SDS011;6877;51.436;6.774;2023-08-31T09:35:59;6.75;;;1.80;;
13611;SDS011;6877;51.436;6.774;2023-08-31T09:38:27;4.78;;;1.92;;
13611;SDS011;6877;51.436;6.774;2023-08-31T09:41:03;5.15;;;2.47;;
13611;SDS011;6877;51.436;6.774;2023-08-31T09:43:32;5.15;;;2.20;;
13611;SDS011;6877;51.436;6.774;2023-08-31T09:45:59;5.13;;;2.63;;
13611;SDS011;6877;51.436;6.774;2023-08-31T09:48:26;7.57;;;3.53;;
13611;SDS011;6877;51.436;6.774;2023-08-31T09:50:54;3.50;;;2.50;;
13611;SDS011;6877;51.436;6.774;2023-08-31T09:53:23;2.65;;;1.80;;
13611;SDS011;6877;51.436;6.774;2023-08-31T09:55:51;2.72;;;1.80;;
13611;SDS011;6877;51.436;6.774;2023-08-31T09:58:19;5.88;;;2.88;;
13611;SDS011;6877;51.436;6.774;2023-08-31T10:00:47;4.50;;;1.90;;
13611;SDS011;6877;51.436;6.774;2023-08-31T10:03:15;4.57;;;2.47;;
13611;SDS011;6877;51.436;6.774;2023-08-31T10:05:42;8.02;;;3.30;;
13611;SDS011;6877;51.436;6.774;2023-08-31T10:08:10;7.15;;;3.38;;
13611;SDS011;6877;51.436;6.774;2023-08-31T10:10:37;8.20;;;3.00;;
13611;SDS011;6877;51.436;6.774;2023-08-31T10:13:05;5.05;;;2.72;;
13611;SDS011;6877;51.436;6.774;2023-08-31T10:15:33;9.25;;;3.20;;
13611;SDS011;6877;51.436;6.774;2023-08-31T10:18:00;11.10;;;2.70;;
13611;SDS011;6877;51.436;6.774;2023-08-31T10:20:29;5.95;;;3.85;;
13611;SDS011;6877;51.436;6.774;2023-08-31T10:23:03;8.98;;;3.75;;
13611;SDS011;6877;51.436;6.774;2023-08-31T10:28:25;4.93;;;2.50;;
13611;SDS011;6877;51.436;6.774;2023-08-31T10:31:06;5.88;;;2.58;;
13611;SDS011;6877;51.436;6.774;2023-08-31T10:36:40;4.85;;;2.05;;
13611;SDS011;6877;51.436;6.774;2023-08-31T10:39:17;5.05;;;2.47;;
13611;SDS011;6877;51.436;6.774;2023-08-31T10:41:52;5.53;;;2.70;;
13611;SDS011;6877;51.436;6.774;2023-08-31T10:44:25;3.78;;;2.38;;
13611;SDS011;6877;51.436;6.774;2023-08-31T10:47:00;7.00;;;1.83;;
13611;SDS011;6877;51.436;6.774;2023-08-31T10:49:32;2.65;;;1.67;;
13611;SDS011;6877;51.436;6.774;2023-08-31T10:52:19;2.95;;;1.70;;
13611;SDS011;6877;51.436;6.774;2023-08-31T10:54:46;3.47;;;1.50;;
13611;SDS011;6877;51.436;6.774;2023-08-31T10:57:14;5.88;;;2.28;;
13611;SDS011;6877;51.436;6.774;2023-08-31T11:02:09;5.65;;;2.70;;
13611;SDS011;6877;51.436;6.774;2023-08-31T11:04:54;5.53;;;2.55;;
13611;SDS011;6877;51.436;6.774;2023-08-31T11:07:26;5.10;;;2.45;;
13611;SDS011;6877;51.436;6.774;2023-08-31T11:10:05;5.43;;;2.28;;
13611;SDS011;6877;51.436;6.774;2023-08-31T11:12:38;4.15;;;2.47;;
13611;SDS011;6877;51.436;6.774;2023-08-31T11:15:06;4.60;;;3.10;;
13611;SDS011;6877;51.436;6.774;2023-08-31T11:17:33;5.82;;;2.65;;
13611;SDS011;6877;51.436;6.774;2023-08-31T11:20:00;8.90;;;2.58;;
13611;SDS011;6877;51.436;6.774;2023-08-31T11:22:31;6.05;;;2.97;;
13611;SDS011;6877;51.436;6.774;2023-08-31T11:24:59;3.90;;;2.45;;
13611;SDS011;6877;51.436;6.774;2023-08-31T11:27:31;5.15;;;2.78;;
13611;SDS011;6877;51.436;6.774;2023-08-31T11:29:58;6.72;;;3.75;;
13611;SDS011;6877;51.436;6.774;2023-08-31T11:32:24;5.10;;;2.28;;
13611;SDS011;6877;51.436;6.774;2023-08-31T11:34:51;5.85;;;2.60;;
13611;SDS011;6877;51.436;6.774;2023-08-31T11:37:18;6.72;;;2.88;;
13611;SDS011;6877;51.436;6.774;2023-08-31T11:39:49;5.53;;;2.28;;
13611;SDS011;6877;51.436;6.774;2023-08-31T11:42:20;3.50;;;2.13;;
13611;SDS011;6877;51.436;6.774;2023-08-31T11:44:49;4.85;;;2.20;;
13611;SDS011;6877;51.436;6.774;2023-08-31T11:47:17;10.98;;;2.55;;
13611;SDS011;6877;51.436;6.774;2023-08-31T11:49:46;7.53;;;2.90;;
13611;SDS011;6877;51.436;6.774;2023-08-31T11:52:14;7.03;;;2.60;;
13611;SDS011;6877;51.436;6.774;2023-08-31T11:54:41;4.32;;;2.88;;
13611;SDS011;6877;51.436;6.774;2023-08-31T11:57:11;6.50;;;3.90;;
13611;SDS011;6877;51.436;6.774;2023-08-31T11:59:38;4.05;;;2.55;;
13611;SDS011;6877;51.436;6.774;2023-08-31T12:02:06;7.22;;;2.55;;
13611;SDS011;6877;51.436;6.774;2023-08-31T12:04:42;5.47;;;2.58;;
13611;SDS011;6877;51.436;6.774;2023-08-31T12:07:09;4.43;;;2.17;;
13611;SDS011;6877;51.436;6.774;2023-08-31T12:09:36;4.63;;;2.67;;
13611;SDS011;6877;51.436;6.774;2023-08-31T12:12:03;7.40;;;2.50;;
13611;SDS011;6877;51.436;6.774;2023-08-31T12:14:36;4.10;;;2.40;;
13611;SDS011;6877;51.436;6.774;2023-08-31T12:17:05;4.15;;;1.63;;
13611;SDS011;6877;51.436;6.774;2023-08-31T12:19:35;3.70;;;1.92;;
13611;SDS011;6877;51.436;6.774;2023-08-31T12:22:03;5.07;;;2.33;;
13611;SDS011;6877;51.436;6.774;2023-08-31T12:24:36;7.05;;;2.28;;
13611;SDS011;6877;51.436;6.774;2023-08-31T12:27:03;5.10;;;2.40;;
13611;SDS011;6877;51.436;6.774;2023-08-31T12:29:31;5.57;;;2.80;;
13611;SDS011;6877;51.436;6.774;2023-08-31T12:31:57;6.60;;;2.30;;
13611;SDS011;6877;51.436;6.774;2023-08-31T12:34:25;8.27;;;3.20;;
13611;SDS011;6877;51.436;6.774;2023-08-31T12:36:52;6.25;;;2.28;;
13611;SDS011;6877;51.436;6.774;2023-08-31T12:39:18;9.07;;;2.78;;
13611;SDS011;6877;51.436;6.774;2023-08-31T12:41:45;7.88;;;2.88;;
13611;SDS011;6877;51.436;6.774;2023-08-31T12:44:12;5.55;;;2.80;;
13611;SDS011;6877;51.436;6.774;2023-08-31T12:46:39;7.38;;;3.95;;
13611;SDS011;6877;51.436;6.774;2023-08-31T12:49:06;13.48;;;4.18;;
13611;SDS011;6877;51.436;6.774;2023-08-31T12:51:32;12.27;;;2.80;;
13611;SDS011;6877;51.436;6.774;2023-08-31T12:53:59;9.10;;;3.03;;
13611;SDS011;6877;51.436;6.774;2023-08-31T12:56:30;5.65;;;2.10;;
13611;SDS011;6877;51.436;6.774;2023-08-31T12:58:57;4.38;;;2.47;;
13611;SDS011;6877;51.436;6.774;2023-08-31T13:01:24;9.25;;;2.30;;
13611;SDS011;6877;51.436;6.774;2023-08-31T13:03:51;6.32;;;2.13;;
13611;SDS011;6877;51.436;6.774;2023-08-31T13:06:18;5.25;;;2.90;;
13611;SDS011;6877;51.436;6.774;2023-08-31T13:08:45;6.18;;;3.10;;
13611;SDS011;6877;51.436;6.774;2023-08-31T13:11:12;9.57;;;2.88;;
13611;SDS011;6877;51.436;6.774;2023-08-31T13:13:48;5.45;;;2.60;;
13611;SDS011;6877;51.436;6.774;2023-08-31T13:16:14;6.68;;;2.85;;
13611;SDS011;6877;51.436;6.774;2023-08-31T13:18:41;5.75;;;2.72;;
13611;SDS011;6877;51.436;6.774;2023-08-31T13:21:07;5.05;;;2.17;;
13611;SDS011;6877;51.436;6.774;2023-08-31T13:23:33;5.10;;;3.03;;
13611;SDS011;6877;51.436;6.774;2023-08-31T13:26:00;9.35;;;3.58;;
13611;SDS011;6877;51.436;6.774;2023-08-31T13:28:26;4.95;;;2.63;;
13611;SDS011;6877;51.436;6.774;2023-08-31T13:30:56;11.55;;;3.10;;
13611;SDS011;6877;51.436;6.774;2023-08-31T13:33:27;7.70;;;3.72;;
13611;SDS011;6877;51.436;6.774;2023-08-31T13:35:57;7.57;;;2.67;;
13611;SDS011;6877;51.436;6.774;2023-08-31T13:38:29;5.68;;;2.47;;
13611;SDS011;6877;51.436;6.774;2023-08-31T13:41:00;7.05;;;2.33;;
13611;SDS011;6877;51.436;6.774;2023-08-31T13:43:27;9.27;;;4.10;;
13611;SDS011;6877;51.436;6.774;2023-08-31T13:45:53;4.93;;;2.58;;
13611;SDS011;6877;51.436;6.774;2023-08-31T13:48:20;5.07;;;2.33;;
13611;SDS011;6877;51.436;6.774;2023-08-31T13:50:48;9.73;;;2.42;;
13611;SDS011;6877;51.436;6.774;2023-08-31T13:53:15;4.35;;;2.42;;
13611;SDS011;6877;51.436;6.774;2023-08-31T13:55:46;6.15;;;2.65;;
13611;SDS011;6877;51.436;6.774;2023-08-31T13:58:13;3.25;;;2.00;;
13611;SDS011;6877;51.436;6.774;2023-08-31T14:00:40;3.67;;;1.90;;
13611;SDS011;6877;51.436;6.774;2023-08-31T14:03:06;5.05;;;2.38;;
13611;SDS011;6877;51.436;6.774;2023-08-31T14:05:33;4.13;;;2.22;;
13611;SDS011;6877;51.436;6.774;2023-08-31T14:08:00;4.97;;;2.45;;
13611;SDS011;6877;51.436;6.774;2023-08-31T14:10:30;9.15;;;2.75;;
13611;SDS011;6877;51.436;6.774;2023-08-31T14:12:57;9.40;;;2.80;;
13611;SDS011;6877;51.436;6.774;2023-08-31T14:15:24;3.90;;;2.83;;
13611;SDS011;6877;51.436;6.774;2023-08-31T14:17:50;4.55;;;3.55;;
13611;SDS011;6877;51.436;6.774;2023-08-31T14:20:19;6.63;;;3.08;;
13611;SDS011;6877;51.436;6.774;2023-08-31T14:22:50;8.63;;;4.03;;
13611;SDS011;6877;51.436;6.774;2023-08-31T14:25:17;4.72;;;3.78;;
13611;SDS011;6877;51.436;6.774;2023-08-31T14:27:49;14.40;;;4.43;;
13611;SDS011;6877;51.436;6.774;2023-08-31T14:30:15;7.00;;;4.22;;
13611;SDS011;6877;51.436;6.774;2023-08-31T14:32:42;10.05;;;5.55;;
13611;SDS011;6877;51.436;6.774;2023-08-31T14:35:08;13.60;;;5.38;;
13611;SDS011;6877;51.436;6.774;2023-08-31T14:37:34;11.38;;;5.97;;
13611;SDS011;6877;51.436;6.774;2023-08-31T14:40:01;17.25;;;6.35;;
13611;SDS011;6877;51.436;6.774;2023-08-31T14:42:28;27.17;;;7.03;;
13611;SDS011;6877;51.436;6.774;2023-08-31T14:44:59;16.15;;;7.00;;
13611;SDS011;6877;51.436;6.774;2023-08-31T14:47:26;9.68;;;5.10;;
13611;SDS011;6877;51.436;6.774;2023-08-31T14:49:54;8.48;;;4.43;;
13611;SDS011;6877;51.436;6.774;2023-08-31T14:52:21;15.57;;;5.15;;
13611;SDS011;6877;51.436;6.774;2023-08-31T14:54:48;8.02;;;4.03;;
13611;SDS011;6877;51.436;6.774;2023-08-31T14:57:15;9.75;;;4.47;;
13611;SDS011;6877;51.436;6.774;2023-08-31T14:59:41;6.85;;;4.35;;
13611;SDS011;6877;51.436;6.774;2023-08-31T15:02:08;6.70;;;3.40;;
13611;SDS011;6877;51.436;6.774;2023-08-31T15:04:35;5.22;;;3.13;;
13611;SDS011;6877;51.436;6.774;2023-08-31T15:07:01;5.00;;;3.78;;
13611;SDS011;6877;51.436;6.774;2023-08-31T15:09:28;6.75;;;3.92;;
13611;SDS011;6877;51.436;6.774;2023-08-31T15:11:55;7.10;;;3.38;;
13611;SDS011;6877;51.436;6.774;2023-08-31T15:14:26;4.22;;;3.50;;
13611;SDS011;6877;51.436;6.774;2023-08-31T15:16:53;7.32;;;3.38;;
13611;SDS011;6877;51.436;6.774;2023-08-31T15:19:19;7.90;;;3.72;;
13611;SDS011;6877;51.436;6.774;2023-08-31T15:21:46;7.10;;;3.67;;
13611;SDS011;6877;51.436;6.774;2023-08-31T15:24:12;5.80;;;3.83;;
13611;SDS011;6877;51.436;6.774;2023-08-31T15:26:44;6.80;;;3.72;;